ADDS METAR Data INFO
IDs: Format: Raw Decoded Include TAF

Data at: 2112 UTC 20 Nov 2017

METAR for:KCRP (Corpus Christi Intl, TX, US)
Text:KCRP 202051Z 10007KT 10SM OVC046 19/12 A3005 RMK AO2 SLP177 T01940117 56037
Temperature: 19.4°C ( 67°F)
Dewpoint: 11.7°C ( 53°F) [RH = 61%]
Pressure (altimeter):30.05 inches Hg (1017.7 mb) [Sea level pressure: 1017.7 mb]
Winds:from the E (100 degrees) at 8 MPH (7 knots; 3.6 m/s)
Visibility:10 or more sm (16+ km)
Ceiling:4600 feet AGL
Clouds: overcast cloud deck at 4600 feet AGL